createdAt,value
2019-03-23T00:00:49.081Z,38.12
2019-03-23T00:01:49.032Z,38.16
2019-03-23T00:02:49.126Z,38.12
2019-03-23T00:03:49.037Z,38.14
2019-03-23T00:04:49.040Z,38.13
2019-03-23T00:05:49.072Z,38.11
2019-03-23T00:06:49.160Z,38.16
2019-03-23T00:07:49.084Z,38.14
2019-03-23T00:08:49.176Z,38.13
2019-03-23T00:09:49.209Z,38.12
2019-03-23T00:10:49.225Z,38.18
2019-03-23T00:11:49.220Z,38.18
2019-03-23T00:12:49.148Z,38.19
2019-03-23T00:13:49.270Z,38.18
2019-03-23T00:14:49.258Z,38.13
2019-03-23T00:15:49.320Z,38.15
2019-03-23T00:16:49.288Z,38.13
2019-03-23T00:17:48.961Z,38.16
2019-03-23T00:18:49.072Z,38.16
2019-03-23T00:19:49.518Z,38.19
2019-03-23T00:20:49.059Z,38.18
2019-03-23T00:21:48.996Z,38.16
2019-03-23T00:22:49.031Z,38.17
2019-03-23T00:23:49.022Z,38.2
2019-03-23T00:24:49.202Z,38.19
2019-03-23T00:25:49.164Z,38.18
2019-03-23T00:26:49.065Z,38.16
2019-03-23T00:27:49.108Z,38.17
2019-03-23T00:28:49.232Z,38.18
2019-03-23T00:29:49.107Z,38.17
2019-03-23T00:30:49.186Z,38.21
2019-03-23T00:31:49.144Z,38.21
2019-03-23T00:32:49.154Z,38.2
2019-03-23T00:33:49.220Z,38.17
2019-03-23T00:34:49.183Z,38.15
2019-03-23T00:35:49.046Z,38.17
2019-03-23T00:36:49.031Z,38.17
2019-03-23T00:37:49.031Z,38.18
2019-03-23T00:38:49.086Z,38.2
2019-03-23T00:39:49.039Z,38.19
2019-03-23T00:40:49.129Z,38.22
2019-03-23T00:41:49.037Z,38.2
2019-03-23T00:42:49.056Z,38.21
2019-03-23T00:43:49.222Z,38.2
2019-03-23T00:44:49.096Z,38.18
2019-03-23T00:45:49.098Z,38.2
2019-03-23T00:46:49.215Z,38.19
2019-03-23T00:47:49.153Z,38.17
2019-03-23T00:48:49.153Z,38.17
2019-03-23T00:49:49.184Z,38.2
2019-03-23T00:50:49.216Z,38.19
2019-03-23T00:51:49.190Z,38.2
2019-03-23T00:52:49.326Z,38.2
2019-03-23T00:53:48.974Z,38.2
2019-03-23T00:54:48.989Z,38.2
2019-03-23T00:55:48.945Z,38.2
2019-03-23T00:56:48.968Z,38.22
2019-03-23T00:57:49.083Z,38.2
2019-03-23T00:58:48.980Z,38.22
2019-03-23T00:59:48.996Z,38.21
2019-03-23T01:00:49.101Z,38.21
2019-03-23T01:01:49.099Z,38.23
2019-03-23T01:02:49.184Z,38.22
2019-03-23T01:03:49.097Z,38.19
2019-03-23T01:04:49.140Z,38.24
2019-03-23T01:05:49.189Z,38.21
2019-03-23T01:06:52.607Z,38.21
2019-03-23T01:07:49.278Z,38.21
2019-03-23T01:08:49.114Z,38.21
2019-03-23T01:09:49.346Z,38.23
2019-03-23T01:10:49.231Z,38.2
2019-03-23T01:11:49.162Z,38.23
2019-03-23T01:12:48.972Z,38.21
2019-03-23T01:13:48.982Z,38.22
2019-03-23T01:14:49.119Z,38.27
2019-03-23T01:15:49.114Z,38.23
2019-03-23T01:16:49.094Z,38.23
2019-03-23T01:17:49.009Z,38.22
2019-03-23T01:18:49.064Z,38.24
2019-03-23T01:19:49.202Z,38.24
2019-03-23T01:20:50.168Z,38.23
2019-03-23T01:21:49.089Z,38.22
2019-03-23T01:22:49.097Z,38.23
2019-03-23T01:23:49.153Z,38.22
2019-03-23T01:24:49.349Z,38.25
2019-03-23T01:25:49.210Z,38.22
2019-03-23T01:26:49.159Z,38.26
2019-03-23T01:27:49.272Z,38.22
2019-03-23T01:28:49.249Z,38.22
2019-03-23T01:29:49.196Z,38.22
2019-03-23T01:30:49.205Z,38.22
2019-03-23T01:31:49.293Z,38.22
2019-03-23T01:32:48.942Z,38.24
2019-03-23T01:33:49.082Z,38.23
2019-03-23T01:34:48.970Z,38.22
2019-03-23T01:35:48.963Z,38.24
2019-03-23T01:36:49.080Z,38.24
2019-03-23T01:37:49.052Z,38.24
2019-03-23T01:38:48.998Z,38.27
2019-03-23T01:39:49.043Z,38.22
2019-03-23T01:40:49.047Z,38.25
2019-03-23T01:41:49.051Z,38.25
2019-03-23T01:42:50.208Z,38.23
2019-03-23T01:43:49.144Z,38.22
2019-03-23T01:44:49.079Z,38.24
2019-03-23T01:45:49.096Z,38.27
2019-03-23T01:46:49.141Z,38.23
2019-03-23T01:47:49.282Z,38.24
2019-03-23T01:48:49.158Z,38.24
2019-03-23T01:49:49.172Z,38.22
2019-03-23T01:50:48.944Z,38.26
2019-03-23T01:51:48.949Z,38.23
2019-03-23T01:52:48.969Z,38.21
2019-03-23T01:53:48.994Z,38.22
2019-03-23T01:54:49.018Z,38.25
2019-03-23T01:55:49.018Z,38.23
2019-03-23T01:56:49.025Z,38.25
2019-03-23T01:57:49.053Z,38.25
2019-03-23T01:58:49.081Z,38.25
2019-03-23T01:59:49.089Z,38.23
2019-03-23T02:00:49.146Z,38.23
2019-03-23T02:01:49.121Z,38.26
2019-03-23T02:02:49.108Z,38.26
2019-03-23T02:03:49.221Z,38.22
2019-03-23T02:04:49.131Z,38.26
2019-03-23T02:05:49.257Z,38.26
2019-03-23T02:06:49.327Z,38.23
2019-03-23T02:07:49.300Z,38.23
2019-03-23T02:08:49.189Z,38.25
2019-03-23T02:09:48.958Z,38.23
2019-03-23T02:10:48.930Z,38.26
2019-03-23T02:11:49.134Z,38.23
2019-03-23T02:12:48.977Z,38.26
2019-03-23T02:13:49.134Z,38.25
2019-03-23T02:14:48.996Z,38.25
2019-03-23T02:15:49.015Z,38.27
2019-03-23T02:16:49.174Z,38.25
2019-03-23T02:17:49.073Z,38.22
2019-03-23T02:18:49.147Z,38.24
2019-03-23T02:19:49.057Z,38.26
2019-03-23T02:20:49.234Z,38.26
2019-03-23T02:21:49.080Z,38.23
2019-03-23T02:22:49.172Z,38.29
2019-03-23T02:23:49.102Z,38.26
2019-03-23T02:24:49.245Z,38.25
2019-03-23T02:25:49.142Z,38.24
2019-03-23T02:26:48.953Z,38.27
2019-03-23T02:27:49.032Z,38.27
2019-03-23T02:28:49.046Z,38.25
2019-03-23T02:29:49.063Z,38.26
2019-03-23T02:30:49.108Z,38.27
2019-03-23T02:31:49.011Z,38.26
2019-03-23T02:32:49.058Z,38.26
2019-03-23T02:33:49.012Z,38.26
2019-03-23T02:34:49.081Z,38.23
2019-03-23T02:35:49.074Z,38.25
2019-03-23T02:36:49.076Z,38.29
2019-03-23T02:37:49.242Z,38.27
2019-03-23T02:38:49.075Z,38.27
2019-03-23T02:39:49.085Z,38.3
2019-03-23T02:40:49.200Z,38.27
2019-03-23T02:41:49.205Z,38.29
2019-03-23T02:42:49.246Z,38.28
2019-03-23T02:43:49.232Z,38.3
2019-03-23T02:44:49.277Z,38.28
2019-03-23T02:45:48.917Z,38.25
2019-03-23T02:46:48.944Z,38.27
2019-03-23T02:47:48.929Z,38.3
2019-03-23T02:48:48.945Z,38.32
2019-03-23T02:49:49.502Z,38.29
2019-03-23T02:50:49.460Z,38.29
2019-03-23T02:51:49.070Z,38.29
2019-03-23T02:52:49.109Z,38.3
2019-03-23T02:53:49.081Z,38.26
2019-03-23T02:54:49.149Z,38.28
2019-03-23T02:55:49.055Z,38.28
2019-03-23T02:56:49.203Z,38.25
2019-03-23T02:57:49.068Z,38.27
2019-03-23T02:58:49.211Z,38.26
2019-03-23T02:59:49.109Z,38.29
2019-03-23T03:00:49.166Z,38.27
2019-03-23T03:01:49.126Z,38.26
2019-03-23T03:02:49.110Z,38.26
2019-03-23T03:03:48.993Z,38.26
2019-03-23T03:04:49.011Z,38.25
2019-03-23T03:05:49.071Z,38.26
2019-03-23T03:06:49.074Z,38.28
2019-03-23T03:07:48.989Z,38.26
2019-03-23T03:08:49.077Z,38.26
2019-03-23T03:09:49.188Z,38.28
2019-03-23T03:10:49.087Z,38.29
2019-03-23T03:11:49.213Z,38.3
2019-03-23T03:12:49.034Z,38.3
2019-03-23T03:13:49.083Z,38.28
2019-03-23T03:14:49.176Z,38.3
2019-03-23T03:15:49.182Z,38.28
2019-03-23T03:16:49.239Z,38.28
2019-03-23T03:17:49.096Z,38.29
2019-03-23T03:18:49.126Z,38.26
2019-03-23T03:19:49.121Z,38.27
2019-03-23T03:20:49.173Z,38.29
2019-03-23T03:21:49.228Z,38.27
2019-03-23T03:22:49.007Z,38.26
2019-03-23T03:23:48.910Z,38.29
2019-03-23T03:24:49.031Z,38.28
2019-03-23T03:25:49.011Z,38.29
2019-03-23T03:26:49.144Z,38.27
2019-03-23T03:27:48.959Z,38.29
2019-03-23T03:28:49.252Z,38.29
2019-03-23T03:29:49.017Z,38.29
2019-03-23T03:30:49.184Z,38.32
2019-03-23T03:31:49.010Z,38.28
2019-03-23T03:32:49.041Z,38.29
2019-03-23T03:33:49.308Z,38.3
2019-03-23T03:34:49.536Z,38.32
2019-03-23T03:35:49.127Z,38.29
2019-03-23T03:36:49.248Z,38.29
2019-03-23T03:37:57.301Z,38.29
2019-03-23T03:38:49.133Z,38.29
2019-03-23T03:39:49.004Z,38.27
2019-03-23T03:40:48.924Z,38.3
2019-03-23T03:41:48.933Z,38.28
2019-03-23T03:42:49.076Z,38.29
2019-03-23T03:43:49.095Z,38.28
2019-03-23T03:44:49.062Z,38.28
2019-03-23T03:45:49.054Z,38.29
2019-03-23T03:46:48.990Z,38.3
2019-03-23T03:47:49.112Z,38.29
2019-03-23T03:48:49.395Z,38.3
2019-03-23T03:49:49.155Z,38.27
2019-03-23T03:50:49.142Z,38.27
2019-03-23T03:51:49.160Z,38.28
2019-03-23T03:52:49.191Z,38.3
2019-03-23T03:53:49.213Z,38.25
2019-03-23T03:54:49.250Z,38.27
2019-03-23T03:55:49.425Z,38.29
2019-03-23T03:56:51.053Z,38.24
2019-03-23T03:57:49.078Z,38.27
2019-03-23T03:58:48.987Z,38.29
2019-03-23T03:59:48.918Z,38.26
2019-03-23T04:00:49.125Z,38.28
2019-03-23T04:01:49.008Z,38.25
2019-03-23T04:02:48.948Z,38.28
2019-03-23T04:03:49.087Z,38.31
2019-03-23T04:04:48.980Z,38.34
2019-03-23T04:05:49.311Z,38.3
2019-03-23T04:06:49.216Z,38.28
2019-03-23T04:07:49.118Z,38.28
2019-03-23T04:08:49.213Z,38.28
2019-03-23T04:09:49.213Z,38.28
2019-03-23T04:10:49.081Z,38.27
2019-03-23T04:11:49.129Z,38.3
2019-03-23T04:12:49.107Z,38.28
2019-03-23T04:13:49.161Z,38.27
2019-03-23T04:14:49.088Z,38.27
2019-03-23T04:15:48.976Z,38.3
2019-03-23T04:16:49.000Z,38.3
2019-03-23T04:17:49.058Z,38.29
2019-03-23T04:18:49.043Z,38.28
2019-03-23T04:19:49.074Z,38.28
2019-03-23T04:20:49.006Z,38.27
2019-03-23T04:21:49.196Z,38.3
2019-03-23T04:22:49.018Z,38.3
2019-03-23T04:23:49.179Z,38.28
2019-03-23T04:24:49.154Z,38.27
2019-03-23T04:25:49.187Z,38.27
2019-03-23T04:26:49.195Z,38.29
2019-03-23T04:27:49.331Z,38.3
2019-03-23T04:28:49.081Z,38.3
2019-03-23T04:29:49.213Z,38.29
2019-03-23T04:30:49.239Z,38.28
2019-03-23T04:31:49.095Z,38.28
2019-03-23T04:32:49.223Z,38.27
2019-03-23T04:33:48.888Z,38.28
2019-03-23T04:34:48.929Z,38.28
2019-03-23T04:35:48.926Z,38.28
2019-03-23T04:36:49.007Z,38.29
2019-03-23T04:37:48.925Z,38.26
2019-03-23T04:38:48.927Z,38.26
2019-03-23T04:39:49.524Z,38.26
2019-03-23T04:40:49.113Z,38.25
2019-03-23T04:41:49.054Z,38.25
2019-03-23T04:42:49.053Z,38.26
2019-03-23T04:43:49.144Z,38.27
2019-03-23T04:44:48.989Z,38.27
2019-03-23T04:45:49.163Z,38.25
2019-03-23T04:46:49.065Z,38.22
2019-03-23T04:47:49.034Z,38.26
2019-03-23T04:48:49.126Z,38.24
2019-03-23T04:49:49.075Z,38.23
2019-03-23T04:50:49.071Z,38.24
2019-03-23T04:51:49.037Z,38.19
2019-03-23T04:52:48.946Z,38.21
2019-03-23T04:53:48.939Z,38.26
2019-03-23T04:54:49.012Z,38.23
2019-03-23T04:55:49.022Z,38.25
2019-03-23T04:56:48.986Z,38.24
2019-03-23T04:57:49.072Z,38.27
2019-03-23T04:58:49.106Z,38.24
2019-03-23T04:59:49.090Z,38.21
2019-03-23T05:00:49.668Z,38.23
2019-03-23T05:01:49.115Z,38.18
2019-03-23T05:02:49.135Z,38.15
2019-03-23T05:03:49.085Z,38.18
2019-03-23T05:04:49.160Z,38.12
2019-03-23T05:05:49.172Z,38.13
2019-03-23T05:06:49.204Z,38.1
2019-03-23T05:07:49.085Z,38.16
2019-03-23T05:08:49.224Z,38.07
2019-03-23T05:09:48.874Z,38.13
2019-03-23T05:10:49.059Z,38.09
2019-03-23T05:11:48.890Z,38.1
2019-03-23T05:12:49.046Z,38.06
2019-03-23T05:13:49.087Z,38.12
2019-03-23T05:14:49.119Z,38.07
2019-03-23T05:15:48.949Z,38.03
2019-03-23T05:16:49.098Z,38.12
2019-03-23T05:17:49.038Z,38.04
2019-03-23T05:18:49.009Z,38.07
2019-03-23T05:19:49.042Z,38.13
2019-03-23T05:20:49.001Z,38.09
2019-03-23T05:21:49.017Z,38.06
2019-03-23T05:22:49.030Z,38.07
2019-03-23T05:23:49.158Z,38.03
2019-03-23T05:24:49.069Z,38.06
2019-03-23T05:25:49.059Z,38.05
2019-03-23T05:26:50.196Z,38.02
2019-03-23T05:27:49.279Z,38.13
2019-03-23T05:28:49.012Z,38.11
2019-03-23T05:29:49.005Z,38.09
2019-03-23T05:30:49.189Z,38.08
2019-03-23T05:31:49.021Z,38.07
2019-03-23T05:32:49.055Z,38.04
2019-03-23T05:33:49.072Z,38.12
2019-03-23T05:34:49.030Z,38.06
2019-03-23T05:35:49.070Z,38.14
2019-03-23T05:36:48.996Z,38.08
2019-03-23T05:37:49.062Z,38.08
2019-03-23T05:38:49.164Z,38.07
2019-03-23T05:39:49.132Z,38.07
2019-03-23T05:40:49.108Z,38.07
2019-03-23T05:41:49.139Z,38.05
2019-03-23T05:42:49.184Z,38.04
2019-03-23T05:43:49.534Z,38.03
2019-03-23T05:44:49.177Z,38.05
2019-03-23T05:45:48.990Z,38.04
2019-03-23T05:46:48.981Z,38.08
2019-03-23T05:47:48.877Z,38
2019-03-23T05:48:48.896Z,38.07
2019-03-23T05:49:49.072Z,38.05
2019-03-23T05:50:49.041Z,38.05
2019-03-23T05:51:48.959Z,38.01
2019-03-23T05:52:48.957Z,38.07
2019-03-23T05:53:49.072Z,38.02
2019-03-23T05:54:49.111Z,38.05
2019-03-23T05:55:49.049Z,38.02
2019-03-23T05:56:49.124Z,38.04
2019-03-23T05:57:49.111Z,38.05
2019-03-23T05:58:49.057Z,38.06
2019-03-23T05:59:49.111Z,38.04
2019-03-23T06:00:49.191Z,38.02
2019-03-23T06:01:49.146Z,38.04
2019-03-23T06:02:49.094Z,38.06
2019-03-23T06:03:48.865Z,38.04
2019-03-23T06:04:48.869Z,38.04
2019-03-23T06:05:48.911Z,38.04
2019-03-23T06:06:49.786Z,38.02
2019-03-23T06:07:49.026Z,38
2019-03-23T06:08:55.552Z,38
2019-03-23T06:09:49.094Z,37.96
2019-03-23T06:10:49.053Z,38.04
2019-03-23T06:11:49.298Z,37.99
2019-03-23T06:12:49.024Z,37.96
2019-03-23T06:13:49.200Z,38
2019-03-23T06:14:49.202Z,37.99
2019-03-23T06:15:49.165Z,37.99
2019-03-23T06:16:49.576Z,37.97
2019-03-23T06:17:49.139Z,37.97
2019-03-23T06:18:49.312Z,37.99
2019-03-23T06:19:49.208Z,37.95
2019-03-23T06:20:48.946Z,37.97
2019-03-23T06:21:49.013Z,37.94
2019-03-23T06:22:49.237Z,37.96
2019-03-23T06:23:49.073Z,37.92
2019-03-23T06:24:48.972Z,37.96
2019-03-23T06:25:48.899Z,37.96
2019-03-23T06:26:48.961Z,37.97
2019-03-23T06:27:49.621Z,37.97
2019-03-23T06:28:48.959Z,37.95
2019-03-23T06:29:49.048Z,37.95
2019-03-23T06:30:49.135Z,37.99
2019-03-23T06:31:49.141Z,37.97
2019-03-23T06:32:49.075Z,37.97
2019-03-23T06:33:49.144Z,37.98
2019-03-23T06:34:49.134Z,37.97
2019-03-23T06:35:49.072Z,38.01
2019-03-23T06:36:49.197Z,37.96
2019-03-23T06:37:49.464Z,37.96
2019-03-23T06:38:48.854Z,37.93
2019-03-23T06:39:49.033Z,37.95
2019-03-23T06:40:48.898Z,37.95
2019-03-23T06:41:48.882Z,37.96
2019-03-23T06:43:00.028Z,37.95
2019-03-23T06:43:49.216Z,37.99
2019-03-23T06:44:49.012Z,37.95
2019-03-23T06:45:49.041Z,37.97
2019-03-23T06:46:49.036Z,37.96
2019-03-23T06:47:49.020Z,37.93
2019-03-23T06:48:49.012Z,37.95
2019-03-23T06:49:49.772Z,37.95
2019-03-23T06:50:49.117Z,37.9
2019-03-23T06:51:49.110Z,37.97
2019-03-23T06:52:49.056Z,37.96
2019-03-23T06:53:49.147Z,37.92
2019-03-23T06:54:49.368Z,37.96
2019-03-23T06:55:49.386Z,37.94
2019-03-23T06:56:48.764Z,37.94
2019-03-23T06:57:48.934Z,37.91
2019-03-23T06:58:48.818Z,37.91
2019-03-23T06:59:49.043Z,37.95
2019-03-23T07:00:49.076Z,37.95
2019-03-23T07:01:49.107Z,37.95
2019-03-23T07:02:48.970Z,37.97
2019-03-23T07:03:49.000Z,37.94
2019-03-23T07:04:49.105Z,37.94
2019-03-23T07:05:49.098Z,37.96
2019-03-23T07:06:49.094Z,37.94
2019-03-23T07:07:49.117Z,37.94
2019-03-23T07:08:49.125Z,37.97
2019-03-23T07:09:49.187Z,37.94
2019-03-23T07:10:49.482Z,37.95
2019-03-23T07:11:49.175Z,37.95
2019-03-23T07:12:49.149Z,37.91
2019-03-23T07:13:49.127Z,37.95
2019-03-23T07:14:48.855Z,37.94
2019-03-23T07:15:48.881Z,37.97
2019-03-23T07:16:48.891Z,37.95
2019-03-23T07:17:48.888Z,37.97
2019-03-23T07:18:48.982Z,37.95
2019-03-23T07:19:49.025Z,37.94
2019-03-23T07:20:49.174Z,37.92
2019-03-23T07:21:48.974Z,37.96
2019-03-23T07:22:49.046Z,37.97
2019-03-23T07:23:49.074Z,37.98
2019-03-23T07:24:49.078Z,37.97
2019-03-23T07:25:49.023Z,37.97
2019-03-23T07:26:49.304Z,37.95
2019-03-23T07:27:49.230Z,37.94
2019-03-23T07:28:49.130Z,37.95
2019-03-23T07:29:49.053Z,37.98
2019-03-23T07:30:49.128Z,37.92
2019-03-23T07:31:49.162Z,37.97
2019-03-23T07:32:49.948Z,38
2019-03-23T07:33:48.994Z,38
2019-03-23T07:34:48.892Z,37.97
2019-03-23T07:35:49.011Z,37.98
2019-03-23T07:36:48.978Z,38.01
2019-03-23T07:37:49.042Z,37.94
2019-03-23T07:38:49.049Z,37.99
2019-03-23T07:39:49.104Z,38
2019-03-23T07:40:49.031Z,37.98
2019-03-23T07:41:49.007Z,37.97
2019-03-23T07:42:48.934Z,37.99
2019-03-23T07:43:48.971Z,37.99
2019-03-23T07:44:49.078Z,37.99
2019-03-23T07:45:48.983Z,37.98
2019-03-23T07:46:49.173Z,37.99
2019-03-23T07:47:49.128Z,37.96
2019-03-23T07:48:49.165Z,37.96
2019-03-23T07:49:48.943Z,38
2019-03-23T07:50:48.924Z,37.97
2019-03-23T07:51:48.959Z,38.02
2019-03-23T07:52:48.929Z,37.97
2019-03-23T07:53:48.878Z,37.97
2019-03-23T07:54:48.952Z,37.98
2019-03-23T07:55:48.930Z,37.94
2019-03-23T07:56:48.936Z,37.97
2019-03-23T07:57:48.925Z,38
2019-03-23T07:58:48.956Z,37.98
2019-03-23T07:59:49.045Z,38.18
2019-03-23T08:00:49.223Z,37.65
2019-03-23T08:01:49.122Z,37.47
2019-03-23T08:02:49.136Z,37.39
2019-03-23T08:03:49.009Z,37.61
2019-03-23T08:04:49.008Z,37.58
2019-03-23T08:05:49.150Z,37.61
2019-03-23T08:06:48.891Z,37.72
2019-03-23T08:07:48.898Z,37.69
2019-03-23T08:08:48.883Z,37.71
2019-03-23T08:09:48.827Z,37.78
2019-03-23T08:10:49.109Z,37.81
2019-03-23T08:11:49.018Z,37.77
2019-03-23T08:12:48.863Z,37.81
2019-03-23T08:13:48.887Z,37.81
2019-03-23T08:14:49.050Z,37.81
2019-03-23T08:15:48.990Z,37.79
2019-03-23T08:16:48.826Z,37.81
2019-03-23T08:17:48.924Z,37.8
2019-03-23T08:18:48.925Z,37.78
2019-03-23T08:19:49.081Z,37.78
2019-03-23T08:20:48.992Z,37.81
2019-03-23T08:21:49.127Z,37.78
2019-03-23T08:22:49.071Z,37.82
2019-03-23T08:23:49.171Z,37.78
2019-03-23T08:24:48.792Z,37.8
2019-03-23T08:25:48.828Z,37.79
2019-03-23T08:26:48.905Z,37.76
2019-03-23T08:27:48.925Z,37.8
2019-03-23T08:28:49.167Z,37.82
2019-03-23T08:29:48.857Z,37.8
2019-03-23T08:30:48.956Z,37.78
2019-03-23T08:31:48.890Z,37.77
2019-03-23T08:32:48.999Z,37.8
2019-03-23T08:33:48.905Z,37.77
2019-03-23T08:34:48.914Z,37.78
2019-03-23T08:35:48.962Z,37.81
2019-03-23T08:36:48.958Z,37.8
2019-03-23T08:37:49.285Z,37.81
2019-03-23T08:38:48.970Z,37.83
2019-03-23T08:39:49.202Z,37.81
2019-03-23T08:40:49.081Z,37.85
2019-03-23T08:41:49.003Z,37.84
2019-03-23T08:42:49.006Z,37.82
2019-03-23T08:43:48.793Z,37.81
2019-03-23T08:44:48.768Z,37.82
2019-03-23T08:45:48.791Z,37.78
2019-03-23T08:46:48.868Z,37.82
2019-03-23T08:47:48.785Z,37.82
2019-03-23T08:48:48.829Z,37.82
2019-03-23T08:49:48.892Z,37.77
2019-03-23T08:50:48.892Z,37.81
2019-03-23T08:51:49.034Z,37.84
2019-03-23T08:52:48.915Z,37.85
2019-03-23T08:53:48.906Z,37.82
2019-03-23T08:54:49.032Z,37.9
2019-03-23T08:55:48.984Z,38.09
2019-03-23T08:56:49.028Z,38.2
2019-03-23T08:57:48.947Z,38.1
2019-03-23T08:58:50.080Z,38.09
2019-03-23T08:59:49.153Z,38.35
2019-03-23T09:00:49.098Z,38.22
2019-03-23T09:01:48.784Z,38.25
2019-03-23T09:02:48.831Z,38.27
2019-03-23T09:03:52.952Z,38.3
2019-03-23T09:04:48.882Z,38.26
2019-03-23T09:05:48.865Z,38.44
2019-03-23T09:06:48.989Z,38.38
2019-03-23T09:07:48.972Z,38.43
2019-03-23T09:08:49.028Z,38.46
2019-03-23T09:09:59.508Z,38.63
2019-03-23T09:10:48.971Z,38.7
2019-03-23T09:11:49.040Z,38.44
2019-03-23T09:12:49.087Z,38.54
2019-03-23T09:13:49.084Z,38.38
2019-03-23T09:14:48.981Z,38.48
2019-03-23T09:15:49.086Z,38.5
2019-03-23T09:16:49.074Z,38.75
2019-03-23T09:17:49.057Z,38.7
2019-03-23T09:18:49.036Z,38.91
2019-03-23T09:19:49.920Z,38.55
2019-03-23T09:20:49.940Z,38.91
2019-03-23T09:21:48.919Z,38.75
2019-03-23T09:22:48.842Z,38.56
2019-03-23T09:23:48.801Z,38.49
2019-03-23T09:24:48.871Z,38.49
2019-03-23T09:25:48.864Z,38.56
2019-03-23T09:26:48.866Z,38.55
2019-03-23T09:27:48.959Z,38.61
2019-03-23T09:28:48.881Z,38.68
2019-03-23T09:29:48.890Z,38.55
2019-03-23T09:30:48.913Z,38.55
2019-03-23T09:31:48.960Z,38.66
2019-03-23T09:32:49.123Z,38.49
2019-03-23T09:33:49.003Z,38.78
2019-03-23T09:34:48.963Z,38.69
2019-03-23T09:35:48.954Z,38.59
2019-03-23T09:36:49.008Z,38.53
2019-03-23T09:37:48.890Z,38.71
2019-03-23T09:38:48.805Z,38.47
2019-03-23T09:39:48.786Z,38.86
2019-03-23T09:40:48.846Z,38.71
2019-03-23T09:41:48.942Z,38.46
2019-03-23T09:42:49.029Z,38.53
2019-03-23T09:43:49.141Z,38.81
2019-03-23T09:44:48.975Z,38.74
2019-03-23T09:45:48.919Z,38.73
2019-03-23T09:46:48.978Z,38.59
2019-03-23T09:47:48.943Z,38.71
2019-03-23T09:48:48.925Z,38.59
2019-03-23T09:49:49.196Z,38.75
2019-03-23T09:50:48.926Z,38.62
2019-03-23T09:51:48.976Z,38.92
2019-03-23T09:52:48.988Z,38.6
2019-03-23T09:53:48.996Z,38.64
2019-03-23T09:54:48.842Z,39.03
2019-03-23T09:55:48.721Z,38.83
2019-03-23T09:56:48.853Z,38.7
2019-03-23T09:57:48.805Z,39.01
2019-03-23T09:58:49.074Z,39.04
2019-03-23T09:59:48.931Z,38.6
2019-03-23T10:00:48.873Z,38.46
2019-03-23T10:01:49.048Z,38.38
2019-03-23T10:02:48.888Z,38.46
2019-03-23T10:03:48.938Z,38.34
2019-03-23T10:04:48.782Z,38.44
2019-03-23T10:05:49.075Z,38.27
2019-03-23T10:06:48.966Z,38.19
2019-03-23T10:07:49.040Z,38.23
2019-03-23T10:08:48.976Z,38.26
2019-03-23T10:09:49.010Z,38.26
2019-03-23T10:10:48.821Z,38.08
2019-03-23T10:11:48.787Z,38.12
2019-03-23T10:12:48.937Z,38.1
2019-03-23T10:13:48.957Z,38.11
2019-03-23T10:14:48.844Z,38.09
2019-03-23T10:15:48.861Z,38.14
2019-03-23T10:16:48.907Z,38.21
2019-03-23T10:17:48.990Z,38.21
2019-03-23T10:18:48.871Z,38.22
2019-03-23T10:19:48.976Z,38.21
2019-03-23T10:20:49.120Z,38.22
2019-03-23T10:21:50.871Z,38.17
2019-03-23T10:22:48.987Z,38.25
2019-03-23T10:23:49.273Z,38.22
2019-03-23T10:24:49.026Z,38.23
2019-03-23T10:25:49.008Z,38.23
2019-03-23T10:26:48.798Z,38.16
2019-03-23T10:27:48.754Z,38.18
2019-03-23T10:28:48.958Z,38.21
2019-03-23T10:29:48.820Z,38.14
2019-03-23T10:30:48.824Z,38.18
2019-03-23T10:31:49.033Z,38.19
2019-03-23T10:32:48.830Z,38.17
2019-03-23T10:33:48.963Z,38.14
2019-03-23T10:34:48.992Z,38.16
2019-03-23T10:35:48.887Z,38.13
2019-03-23T10:36:49.003Z,38.13
2019-03-23T10:37:48.936Z,38.13
2019-03-23T10:38:48.997Z,38.19
2019-03-23T10:39:48.965Z,38.26
2019-03-23T10:40:48.770Z,38.2
2019-03-23T10:41:49.066Z,38.17
2019-03-23T10:42:48.873Z,38.13
2019-03-23T10:43:48.797Z,38.15
2019-03-23T10:44:48.954Z,38.18
2019-03-23T10:45:48.843Z,38.19
2019-03-23T10:46:48.867Z,38.16
2019-03-23T10:47:49.155Z,38.18
2019-03-23T10:48:48.793Z,38.16
2019-03-23T10:49:48.880Z,38.16
2019-03-23T10:50:49.001Z,38.15
2019-03-23T10:51:49.018Z,38.2
2019-03-23T10:52:48.936Z,38.14
2019-03-23T10:53:49.089Z,38.16
2019-03-23T10:54:48.998Z,38.12
2019-03-23T10:55:49.006Z,38.15
2019-03-23T10:56:48.767Z,38.34
2019-03-23T10:57:49.145Z,38.25
2019-03-23T10:58:48.761Z,38.62
2019-03-23T10:59:48.766Z,39.01
2019-03-23T11:00:48.824Z,38.88
2019-03-23T11:01:48.794Z,39.65
2019-03-23T11:02:48.791Z,39.16
2019-03-23T11:03:48.806Z,39.2
2019-03-23T11:04:49.146Z,39.09
2019-03-23T11:05:48.873Z,38.99
2019-03-23T11:06:48.791Z,39.24
2019-03-23T11:07:48.873Z,38.98
2019-03-23T11:08:48.876Z,38.93
2019-03-23T11:09:48.919Z,39.12
2019-03-23T11:10:48.990Z,38.88
2019-03-23T11:11:48.996Z,38.96
2019-03-23T11:12:49.570Z,39.87
2019-03-23T11:13:48.971Z,39.2
2019-03-23T11:14:48.770Z,39.95
2019-03-23T11:15:48.832Z,39.19
2019-03-23T11:16:48.862Z,39.58
2019-03-23T11:17:49.085Z,39.59
2019-03-23T11:18:48.867Z,40.13
2019-03-23T11:19:48.947Z,40.05
2019-03-23T11:20:48.741Z,39.26
2019-03-23T11:21:49.011Z,39.11
2019-03-23T11:22:48.921Z,39.46
2019-03-23T11:23:49.095Z,39.34
2019-03-23T11:24:49.029Z,39.87
2019-03-23T11:25:49.237Z,39.36
2019-03-23T11:26:49.191Z,39.31
2019-03-23T11:27:48.962Z,39.75
2019-03-23T11:28:48.990Z,39.78
2019-03-23T11:29:49.027Z,39.33
2019-03-23T11:30:48.733Z,39.65
2019-03-23T11:31:48.862Z,39.33
2019-03-23T11:32:48.785Z,39.7
2019-03-23T11:33:48.861Z,39.38
2019-03-23T11:34:48.817Z,39.67
2019-03-23T11:35:58.188Z,39.16
2019-03-23T11:36:48.947Z,39.89
2019-03-23T11:37:49.406Z,39.16
2019-03-23T11:38:48.831Z,39.25
2019-03-23T11:39:49.021Z,39.25
2019-03-23T11:40:55.382Z,39.37
2019-03-23T11:41:48.855Z,40.09
2019-03-23T11:42:50.584Z,39.25
2019-03-23T11:43:48.934Z,39.65
2019-03-23T11:44:49.167Z,39.24
2019-03-23T11:45:49.178Z,39.07
2019-03-23T11:46:49.094Z,38.72
2019-03-23T11:47:49.046Z,38.67
2019-03-23T11:48:48.852Z,38.75
2019-03-23T11:49:48.787Z,38.69
2019-03-23T11:50:48.892Z,38.62
2019-03-23T11:51:48.922Z,38.71
2019-03-23T11:52:48.839Z,38.52
2019-03-23T11:53:48.853Z,38.63
2019-03-23T11:54:48.885Z,38.64
2019-03-23T11:55:48.888Z,38.65
2019-03-23T11:56:49.000Z,38.67
2019-03-23T11:57:49.015Z,38.5
2019-03-23T11:58:48.779Z,38.43
2019-03-23T11:59:49.024Z,38.46
2019-03-23T12:00:49.054Z,38.54
2019-03-23T12:01:52.250Z,38.61
2019-03-23T12:02:48.796Z,38.58
2019-03-23T12:03:48.740Z,38.57
2019-03-23T12:04:48.847Z,38.57
2019-03-23T12:05:48.906Z,38.58
2019-03-23T12:06:48.753Z,38.62
2019-03-23T12:07:48.852Z,38.6
2019-03-23T12:08:49.390Z,38.58
2019-03-23T12:09:48.859Z,38.57
2019-03-23T12:10:48.852Z,38.54
2019-03-23T12:11:49.014Z,38.54
2019-03-23T12:12:49.026Z,38.5
2019-03-23T12:13:49.054Z,38.55
2019-03-23T12:14:48.938Z,38.53
2019-03-23T12:15:49.028Z,38.47
2019-03-23T12:16:48.869Z,38.5
2019-03-23T12:17:48.821Z,38.47
2019-03-23T12:18:48.862Z,38.47
2019-03-23T12:19:48.864Z,38.41
2019-03-23T12:20:48.952Z,38.45
2019-03-23T12:21:51.004Z,38.47
2019-03-23T12:22:48.715Z,38.4
2019-03-23T12:23:48.815Z,38.4
2019-03-23T12:24:48.912Z,38.42
2019-03-23T12:25:48.863Z,38.39
2019-03-23T12:26:48.863Z,38.41
2019-03-23T12:27:48.890Z,38.36
2019-03-23T12:28:49.035Z,38.37
2019-03-23T12:29:49.008Z,38.41
2019-03-23T12:30:48.754Z,38.38
2019-03-23T12:31:48.837Z,38.37
2019-03-23T12:32:49.112Z,38.39
2019-03-23T12:33:48.820Z,38.35
2019-03-23T12:34:48.726Z,38.34
2019-03-23T12:35:48.744Z,38.32
2019-03-23T12:36:48.771Z,38.36
2019-03-23T12:37:48.725Z,38.35
2019-03-23T12:38:48.777Z,38.32
2019-03-23T12:39:48.795Z,38.31
2019-03-23T12:40:48.932Z,38.3
2019-03-23T12:41:48.928Z,38.36
2019-03-23T12:42:48.927Z,38.35
2019-03-23T12:43:48.900Z,38.29
2019-03-23T12:44:48.866Z,38.26
2019-03-23T12:45:48.879Z,38.29
2019-03-23T12:46:49.081Z,38.28
2019-03-23T12:47:48.969Z,38.28
2019-03-23T12:48:49.005Z,38.26
2019-03-23T12:49:48.951Z,38.23
2019-03-23T12:50:48.828Z,38.31
2019-03-23T12:51:53.161Z,38.27
2019-03-23T12:52:49.205Z,38.29
2019-03-23T12:53:48.802Z,38.24
2019-03-23T12:54:48.911Z,38.24
2019-03-23T12:55:48.920Z,38.21